sensor_id;sensor_type;location;lat;lon;timestamp;P1;durP1;ratioP1;P2;durP2;ratioP2
6614;SDS011;3343;42.896;23.912;2022-11-13T00:00:39;8.83;;;4.77;;
6614;SDS011;3343;42.896;23.912;2022-11-13T00:03:06;8.83;;;4.67;;
6614;SDS011;3343;42.896;23.912;2022-11-13T00:05:32;8.27;;;5.27;;
6614;SDS011;3343;42.896;23.912;2022-11-13T00:07:59;9.77;;;4.73;;
6614;SDS011;3343;42.896;23.912;2022-11-13T00:10:26;8.63;;;5.17;;
6614;SDS011;3343;42.896;23.912;2022-11-13T00:12:53;8.40;;;4.60;;
6614;SDS011;3343;42.896;23.912;2022-11-13T00:15:21;8.90;;;5.20;;
6614;SDS011;3343;42.896;23.912;2022-11-13T00:17:48;9.33;;;5.10;;
6614;SDS011;3343;42.896;23.912;2022-11-13T00:20:15;7.43;;;4.17;;
6614;SDS011;3343;42.896;23.912;2022-11-13T00:22:43;8.93;;;4.23;;
6614;SDS011;3343;42.896;23.912;2022-11-13T00:25:10;10.87;;;4.70;;
6614;SDS011;3343;42.896;23.912;2022-11-13T00:27:36;9.70;;;4.47;;
6614;SDS011;3343;42.896;23.912;2022-11-13T00:30:04;9.10;;;4.97;;
6614;SDS011;3343;42.896;23.912;2022-11-13T00:32:33;8.30;;;4.47;;
6614;SDS011;3343;42.896;23.912;2022-11-13T00:35:02;9.73;;;4.80;;
6614;SDS011;3343;42.896;23.912;2022-11-13T00:37:29;11.57;;;5.00;;
6614;SDS011;3343;42.896;23.912;2022-11-13T00:39:56;8.63;;;4.63;;
6614;SDS011;3343;42.896;23.912;2022-11-13T00:42:23;9.13;;;5.23;;
6614;SDS011;3343;42.896;23.912;2022-11-13T00:44:50;11.67;;;5.50;;
6614;SDS011;3343;42.896;23.912;2022-11-13T00:47:16;12.90;;;6.57;;
6614;SDS011;3343;42.896;23.912;2022-11-13T00:49:45;8.73;;;4.63;;
6614;SDS011;3343;42.896;23.912;2022-11-13T00:52:12;7.37;;;4.40;;
6614;SDS011;3343;42.896;23.912;2022-11-13T00:54:38;11.73;;;6.50;;
6614;SDS011;3343;42.896;23.912;2022-11-13T00:57:05;10.87;;;5.40;;
6614;SDS011;3343;42.896;23.912;2022-11-13T00:59:32;12.40;;;6.03;;
6614;SDS011;3343;42.896;23.912;2022-11-13T01:01:59;9.97;;;5.33;;
6614;SDS011;3343;42.896;23.912;2022-11-13T01:04:27;12.73;;;5.80;;
6614;SDS011;3343;42.896;23.912;2022-11-13T01:06:55;8.07;;;4.73;;
6614;SDS011;3343;42.896;23.912;2022-11-13T01:09:22;10.20;;;5.53;;
6614;SDS011;3343;42.896;23.912;2022-11-13T01:11:49;11.50;;;5.57;;
6614;SDS011;3343;42.896;23.912;2022-11-13T01:14:16;8.17;;;4.90;;
6614;SDS011;3343;42.896;23.912;2022-11-13T01:16:43;10.90;;;5.63;;
6614;SDS011;3343;42.896;23.912;2022-11-13T01:19:09;9.53;;;5.97;;
6614;SDS011;3343;42.896;23.912;2022-11-13T01:21:36;12.20;;;6.60;;
6614;SDS011;3343;42.896;23.912;2022-11-13T01:24:05;9.33;;;5.60;;
6614;SDS011;3343;42.896;23.912;2022-11-13T01:26:31;14.33;;;6.43;;
6614;SDS011;3343;42.896;23.912;2022-11-13T01:28:58;11.13;;;6.00;;
6614;SDS011;3343;42.896;23.912;2022-11-13T01:31:26;11.87;;;6.57;;
6614;SDS011;3343;42.896;23.912;2022-11-13T01:33:54;13.87;;;5.43;;
6614;SDS011;3343;42.896;23.912;2022-11-13T01:36:22;10.80;;;5.87;;
6614;SDS011;3343;42.896;23.912;2022-11-13T01:38:51;11.10;;;5.40;;
6614;SDS011;3343;42.896;23.912;2022-11-13T01:41:21;10.50;;;5.43;;
6614;SDS011;3343;42.896;23.912;2022-11-13T01:43:49;11.83;;;6.43;;
6614;SDS011;3343;42.896;23.912;2022-11-13T01:46:21;9.70;;;5.70;;
6614;SDS011;3343;42.896;23.912;2022-11-13T01:48:52;9.00;;;5.33;;
6614;SDS011;3343;42.896;23.912;2022-11-13T01:51:24;13.67;;;6.37;;
6614;SDS011;3343;42.896;23.912;2022-11-13T01:53:54;11.10;;;5.50;;
6614;SDS011;3343;42.896;23.912;2022-11-13T01:56:23;10.53;;;5.83;;
6614;SDS011;3343;42.896;23.912;2022-11-13T01:58:52;13.77;;;6.97;;
6614;SDS011;3343;42.896;23.912;2022-11-13T02:01:23;12.93;;;6.53;;
6614;SDS011;3343;42.896;23.912;2022-11-13T02:03:50;13.10;;;6.80;;
6614;SDS011;3343;42.896;23.912;2022-11-13T02:06:18;11.87;;;6.70;;
6614;SDS011;3343;42.896;23.912;2022-11-13T02:08:47;13.00;;;6.47;;
6614;SDS011;3343;42.896;23.912;2022-11-13T02:11:16;13.00;;;5.80;;
6614;SDS011;3343;42.896;23.912;2022-11-13T02:13:44;9.87;;;5.63;;
6614;SDS011;3343;42.896;23.912;2022-11-13T02:16:12;10.50;;;5.90;;
6614;SDS011;3343;42.896;23.912;2022-11-13T02:18:41;9.30;;;5.67;;
6614;SDS011;3343;42.896;23.912;2022-11-13T02:21:17;11.70;;;6.50;;
6614;SDS011;3343;42.896;23.912;2022-11-13T02:23:53;11.37;;;6.00;;
6614;SDS011;3343;42.896;23.912;2022-11-13T02:26:28;11.57;;;6.13;;
6614;SDS011;3343;42.896;23.912;2022-11-13T02:28:57;11.27;;;5.80;;
6614;SDS011;3343;42.896;23.912;2022-11-13T02:31:23;12.37;;;6.00;;
6614;SDS011;3343;42.896;23.912;2022-11-13T02:33:50;12.30;;;6.00;;
6614;SDS011;3343;42.896;23.912;2022-11-13T02:36:17;9.50;;;5.37;;
6614;SDS011;3343;42.896;23.912;2022-11-13T02:38:47;13.10;;;6.83;;
6614;SDS011;3343;42.896;23.912;2022-11-13T02:41:15;9.73;;;5.93;;
6614;SDS011;3343;42.896;23.912;2022-11-13T02:43:43;9.30;;;5.43;;
6614;SDS011;3343;42.896;23.912;2022-11-13T02:46:10;9.97;;;5.57;;
6614;SDS011;3343;42.896;23.912;2022-11-13T02:48:37;14.23;;;7.13;;
6614;SDS011;3343;42.896;23.912;2022-11-13T02:51:04;11.57;;;6.77;;
6614;SDS011;3343;42.896;23.912;2022-11-13T02:53:31;13.00;;;5.07;;
6614;SDS011;3343;42.896;23.912;2022-11-13T02:55:58;12.93;;;7.00;;
6614;SDS011;3343;42.896;23.912;2022-11-13T02:58:25;12.43;;;6.20;;
6614;SDS011;3343;42.896;23.912;2022-11-13T03:00:53;10.07;;;5.57;;
6614;SDS011;3343;42.896;23.912;2022-11-13T03:03:20;11.30;;;5.93;;
6614;SDS011;3343;42.896;23.912;2022-11-13T03:05:47;13.83;;;5.87;;
6614;SDS011;3343;42.896;23.912;2022-11-13T03:08:15;10.17;;;5.73;;
6614;SDS011;3343;42.896;23.912;2022-11-13T03:10:43;8.00;;;4.63;;
6614;SDS011;3343;42.896;23.912;2022-11-13T03:13:10;8.40;;;5.10;;
6614;SDS011;3343;42.896;23.912;2022-11-13T03:15:36;9.47;;;5.33;;
6614;SDS011;3343;42.896;23.912;2022-11-13T03:18:06;10.73;;;5.90;;
6614;SDS011;3343;42.896;23.912;2022-11-13T03:20:34;11.33;;;5.40;;
6614;SDS011;3343;42.896;23.912;2022-11-13T03:23:02;14.47;;;7.17;;
6614;SDS011;3343;42.896;23.912;2022-11-13T03:25:29;12.13;;;6.10;;
6614;SDS011;3343;42.896;23.912;2022-11-13T03:27:56;19.63;;;7.50;;
6614;SDS011;3343;42.896;23.912;2022-11-13T03:30:22;12.27;;;6.43;;
6614;SDS011;3343;42.896;23.912;2022-11-13T03:32:51;9.60;;;5.30;;
6614;SDS011;3343;42.896;23.912;2022-11-13T03:35:20;9.37;;;4.43;;
6614;SDS011;3343;42.896;23.912;2022-11-13T03:37:47;9.60;;;5.30;;
6614;SDS011;3343;42.896;23.912;2022-11-13T03:40:14;9.70;;;5.03;;
6614;SDS011;3343;42.896;23.912;2022-11-13T03:42:41;9.63;;;5.23;;
6614;SDS011;3343;42.896;23.912;2022-11-13T03:45:08;10.07;;;5.20;;
6614;SDS011;3343;42.896;23.912;2022-11-13T03:47:35;10.67;;;5.17;;
6614;SDS011;3343;42.896;23.912;2022-11-13T03:50:02;10.20;;;5.00;;
6614;SDS011;3343;42.896;23.912;2022-11-13T03:52:31;9.73;;;5.33;;
6614;SDS011;3343;42.896;23.912;2022-11-13T03:54:58;12.07;;;5.63;;
6614;SDS011;3343;42.896;23.912;2022-11-13T03:57:25;9.97;;;4.57;;
6614;SDS011;3343;42.896;23.912;2022-11-13T03:59:53;8.10;;;4.27;;
6614;SDS011;3343;42.896;23.912;2022-11-13T04:02:20;9.33;;;4.03;;
6614;SDS011;3343;42.896;23.912;2022-11-13T04:04:46;8.80;;;4.90;;
6614;SDS011;3343;42.896;23.912;2022-11-13T04:07:13;10.43;;;4.40;;
6614;SDS011;3343;42.896;23.912;2022-11-13T04:09:41;8.63;;;4.90;;
6614;SDS011;3343;42.896;23.912;2022-11-13T04:12:08;8.57;;;4.80;;
6614;SDS011;3343;42.896;23.912;2022-11-13T04:14:35;10.43;;;4.83;;
6614;SDS011;3343;42.896;23.912;2022-11-13T04:17:02;8.83;;;5.00;;
6614;SDS011;3343;42.896;23.912;2022-11-13T04:19:29;8.70;;;5.17;;
6614;SDS011;3343;42.896;23.912;2022-11-13T04:21:56;8.10;;;5.13;;
6614;SDS011;3343;42.896;23.912;2022-11-13T04:24:22;15.10;;;6.00;;
6614;SDS011;3343;42.896;23.912;2022-11-13T04:26:51;14.13;;;6.13;;
6614;SDS011;3343;42.896;23.912;2022-11-13T04:29:18;17.07;;;7.37;;
6614;SDS011;3343;42.896;23.912;2022-11-13T04:31:45;11.23;;;4.63;;
6614;SDS011;3343;42.896;23.912;2022-11-13T04:34:12;14.07;;;5.40;;
6614;SDS011;3343;42.896;23.912;2022-11-13T04:36:38;28.13;;;8.63;;
6614;SDS011;3343;42.896;23.912;2022-11-13T04:39:05;16.03;;;6.63;;
6614;SDS011;3343;42.896;23.912;2022-11-13T04:41:33;10.00;;;5.20;;
6614;SDS011;3343;42.896;23.912;2022-11-13T04:44:18;7.97;;;4.27;;
6614;SDS011;3343;42.896;23.912;2022-11-13T04:46:45;9.57;;;4.93;;
6614;SDS011;3343;42.896;23.912;2022-11-13T04:49:12;13.13;;;5.07;;
6614;SDS011;3343;42.896;23.912;2022-11-13T04:51:39;12.70;;;5.20;;
6614;SDS011;3343;42.896;23.912;2022-11-13T04:54:06;23.60;;;8.70;;
6614;SDS011;3343;42.896;23.912;2022-11-13T04:56:33;19.60;;;5.57;;
6614;SDS011;3343;42.896;23.912;2022-11-13T04:59:00;11.73;;;5.33;;
6614;SDS011;3343;42.896;23.912;2022-11-13T05:01:28;12.53;;;5.40;;
6614;SDS011;3343;42.896;23.912;2022-11-13T05:03:55;10.93;;;5.50;;
6614;SDS011;3343;42.896;23.912;2022-11-13T05:06:22;13.23;;;6.63;;
6614;SDS011;3343;42.896;23.912;2022-11-13T05:08:49;11.30;;;6.30;;
6614;SDS011;3343;42.896;23.912;2022-11-13T05:11:16;20.97;;;6.77;;
6614;SDS011;3343;42.896;23.912;2022-11-13T05:13:43;13.80;;;6.27;;
6614;SDS011;3343;42.896;23.912;2022-11-13T05:16:10;12.90;;;6.13;;
6614;SDS011;3343;42.896;23.912;2022-11-13T05:18:40;9.90;;;5.37;;
6614;SDS011;3343;42.896;23.912;2022-11-13T05:21:07;14.73;;;8.57;;
6614;SDS011;3343;42.896;23.912;2022-11-13T05:23:35;15.77;;;6.57;;
6614;SDS011;3343;42.896;23.912;2022-11-13T05:26:02;10.93;;;5.23;;
6614;SDS011;3343;42.896;23.912;2022-11-13T05:28:30;10.63;;;4.57;;
6614;SDS011;3343;42.896;23.912;2022-11-13T05:31:04;14.67;;;6.03;;
6614;SDS011;3343;42.896;23.912;2022-11-13T05:33:32;16.03;;;6.10;;
6614;SDS011;3343;42.896;23.912;2022-11-13T05:36:04;14.83;;;8.47;;
6614;SDS011;3343;42.896;23.912;2022-11-13T05:38:33;7.37;;;5.13;;
6614;SDS011;3343;42.896;23.912;2022-11-13T05:41:01;8.93;;;5.43;;
6614;SDS011;3343;42.896;23.912;2022-11-13T05:43:29;18.00;;;7.40;;
6614;SDS011;3343;42.896;23.912;2022-11-13T05:45:59;15.33;;;6.70;;
6614;SDS011;3343;42.896;23.912;2022-11-13T05:48:27;9.93;;;5.57;;
6614;SDS011;3343;42.896;23.912;2022-11-13T05:50:59;11.83;;;5.23;;
6614;SDS011;3343;42.896;23.912;2022-11-13T05:53:28;11.43;;;5.10;;
6614;SDS011;3343;42.896;23.912;2022-11-13T05:55:58;14.50;;;5.90;;
6614;SDS011;3343;42.896;23.912;2022-11-13T05:58:26;15.50;;;5.83;;
6614;SDS011;3343;42.896;23.912;2022-11-13T06:00:53;12.33;;;6.17;;
6614;SDS011;3343;42.896;23.912;2022-11-13T06:03:19;22.57;;;9.67;;
6614;SDS011;3343;42.896;23.912;2022-11-13T06:05:46;34.80;;;7.83;;
6614;SDS011;3343;42.896;23.912;2022-11-13T06:08:13;29.17;;;9.90;;
6614;SDS011;3343;42.896;23.912;2022-11-13T06:10:41;14.10;;;6.73;;
6614;SDS011;3343;42.896;23.912;2022-11-13T06:13:08;14.37;;;6.30;;
6614;SDS011;3343;42.896;23.912;2022-11-13T06:15:35;16.03;;;5.27;;
6614;SDS011;3343;42.896;23.912;2022-11-13T06:18:02;9.77;;;4.93;;
6614;SDS011;3343;42.896;23.912;2022-11-13T06:20:29;9.60;;;4.37;;
6614;SDS011;3343;42.896;23.912;2022-11-13T06:22:56;9.90;;;4.63;;
6614;SDS011;3343;42.896;23.912;2022-11-13T06:25:23;11.80;;;5.70;;
6614;SDS011;3343;42.896;23.912;2022-11-13T06:27:52;10.83;;;5.67;;
6614;SDS011;3343;42.896;23.912;2022-11-13T06:30:20;12.10;;;6.80;;
6614;SDS011;3343;42.896;23.912;2022-11-13T06:32:50;14.40;;;7.60;;
6614;SDS011;3343;42.896;23.912;2022-11-13T06:35:17;12.80;;;5.57;;
6614;SDS011;3343;42.896;23.912;2022-11-13T06:37:44;16.63;;;6.17;;
6614;SDS011;3343;42.896;23.912;2022-11-13T06:40:12;12.63;;;5.10;;
6614;SDS011;3343;42.896;23.912;2022-11-13T06:42:39;12.27;;;5.00;;
6614;SDS011;3343;42.896;23.912;2022-11-13T06:45:08;12.60;;;5.20;;
6614;SDS011;3343;42.896;23.912;2022-11-13T06:47:35;8.70;;;4.87;;
6614;SDS011;3343;42.896;23.912;2022-11-13T06:50:02;10.80;;;5.50;;
6614;SDS011;3343;42.896;23.912;2022-11-13T06:52:30;15.80;;;6.57;;
6614;SDS011;3343;42.896;23.912;2022-11-13T06:54:58;8.90;;;5.33;;
6614;SDS011;3343;42.896;23.912;2022-11-13T06:57:25;9.87;;;5.07;;
6614;SDS011;3343;42.896;23.912;2022-11-13T06:59:52;13.63;;;6.03;;
6614;SDS011;3343;42.896;23.912;2022-11-13T07:02:21;11.80;;;6.40;;
6614;SDS011;3343;42.896;23.912;2022-11-13T07:04:48;11.17;;;6.70;;
6614;SDS011;3343;42.896;23.912;2022-11-13T07:07:15;9.50;;;5.03;;
6614;SDS011;3343;42.896;23.912;2022-11-13T07:09:41;13.13;;;6.50;;
6614;SDS011;3343;42.896;23.912;2022-11-13T07:12:08;12.63;;;6.20;;
6614;SDS011;3343;42.896;23.912;2022-11-13T07:14:35;11.40;;;5.47;;
6614;SDS011;3343;42.896;23.912;2022-11-13T07:17:02;10.67;;;6.10;;
6614;SDS011;3343;42.896;23.912;2022-11-13T07:19:30;12.27;;;6.30;;
6614;SDS011;3343;42.896;23.912;2022-11-13T07:21:57;10.47;;;5.50;;
6614;SDS011;3343;42.896;23.912;2022-11-13T07:24:24;7.60;;;4.47;;
6614;SDS011;3343;42.896;23.912;2022-11-13T07:26:51;8.13;;;4.07;;
6614;SDS011;3343;42.896;23.912;2022-11-13T07:29:18;8.77;;;4.53;;
6614;SDS011;3343;42.896;23.912;2022-11-13T07:31:44;8.30;;;5.10;;
6614;SDS011;3343;42.896;23.912;2022-11-13T07:34:11;8.40;;;5.63;;
6614;SDS011;3343;42.896;23.912;2022-11-13T07:36:42;7.03;;;4.50;;
6614;SDS011;3343;42.896;23.912;2022-11-13T07:39:09;9.00;;;5.50;;
6614;SDS011;3343;42.896;23.912;2022-11-13T07:41:36;8.63;;;4.90;;
6614;SDS011;3343;42.896;23.912;2022-11-13T07:44:02;6.30;;;4.33;;
6614;SDS011;3343;42.896;23.912;2022-11-13T07:46:30;8.03;;;4.97;;
6614;SDS011;3343;42.896;23.912;2022-11-13T07:48:56;9.57;;;5.57;;
6614;SDS011;3343;42.896;23.912;2022-11-13T07:51:23;8.33;;;4.47;;
6614;SDS011;3343;42.896;23.912;2022-11-13T07:53:51;9.07;;;4.90;;
6614;SDS011;3343;42.896;23.912;2022-11-13T07:56:18;7.33;;;4.27;;
6614;SDS011;3343;42.896;23.912;2022-11-13T07:58:47;6.60;;;4.20;;
6614;SDS011;3343;42.896;23.912;2022-11-13T08:01:14;9.13;;;5.20;;
6614;SDS011;3343;42.896;23.912;2022-11-13T08:03:41;9.67;;;5.37;;
6614;SDS011;3343;42.896;23.912;2022-11-13T08:06:07;10.27;;;4.70;;
6614;SDS011;3343;42.896;23.912;2022-11-13T08:08:34;10.30;;;5.07;;
6614;SDS011;3343;42.896;23.912;2022-11-13T08:11:06;8.97;;;5.00;;
6614;SDS011;3343;42.896;23.912;2022-11-13T08:13:34;11.13;;;5.93;;
6614;SDS011;3343;42.896;23.912;2022-11-13T08:16:02;18.97;;;7.20;;
6614;SDS011;3343;42.896;23.912;2022-11-13T08:18:30;13.70;;;7.40;;
6614;SDS011;3343;42.896;23.912;2022-11-13T08:20:59;12.47;;;6.23;;
6614;SDS011;3343;42.896;23.912;2022-11-13T08:23:27;10.80;;;5.90;;
6614;SDS011;3343;42.896;23.912;2022-11-13T08:25:54;12.57;;;5.90;;
6614;SDS011;3343;42.896;23.912;2022-11-13T08:28:23;11.80;;;6.07;;
6614;SDS011;3343;42.896;23.912;2022-11-13T08:30:50;13.37;;;5.87;;
6614;SDS011;3343;42.896;23.912;2022-11-13T08:33:17;13.47;;;6.43;;
6614;SDS011;3343;42.896;23.912;2022-11-13T08:35:50;10.30;;;5.17;;
6614;SDS011;3343;42.896;23.912;2022-11-13T08:38:19;10.20;;;5.20;;
6614;SDS011;3343;42.896;23.912;2022-11-13T08:40:46;13.13;;;5.87;;
6614;SDS011;3343;42.896;23.912;2022-11-13T08:43:13;8.13;;;4.77;;
6614;SDS011;3343;42.896;23.912;2022-11-13T08:45:41;9.77;;;5.80;;
6614;SDS011;3343;42.896;23.912;2022-11-13T08:48:10;12.77;;;6.83;;
6614;SDS011;3343;42.896;23.912;2022-11-13T08:50:38;10.83;;;5.97;;
6614;SDS011;3343;42.896;23.912;2022-11-13T08:53:05;11.27;;;5.67;;
6614;SDS011;3343;42.896;23.912;2022-11-13T08:55:32;8.17;;;5.33;;
6614;SDS011;3343;42.896;23.912;2022-11-13T08:57:59;9.40;;;5.20;;
6614;SDS011;3343;42.896;23.912;2022-11-13T09:00:27;12.93;;;6.37;;
6614;SDS011;3343;42.896;23.912;2022-11-13T09:02:58;9.03;;;5.83;;
6614;SDS011;3343;42.896;23.912;2022-11-13T09:05:25;13.17;;;6.60;;
6614;SDS011;3343;42.896;23.912;2022-11-13T09:07:54;11.13;;;5.77;;
6614;SDS011;3343;42.896;23.912;2022-11-13T09:10:23;10.23;;;6.00;;
6614;SDS011;3343;42.896;23.912;2022-11-13T09:12:54;12.47;;;6.63;;
6614;SDS011;3343;42.896;23.912;2022-11-13T09:15:22;10.90;;;5.77;;
6614;SDS011;3343;42.896;23.912;2022-11-13T09:17:49;11.77;;;6.07;;
6614;SDS011;3343;42.896;23.912;2022-11-13T09:20:17;12.23;;;6.73;;
6614;SDS011;3343;42.896;23.912;2022-11-13T09:22:44;10.93;;;6.73;;
6614;SDS011;3343;42.896;23.912;2022-11-13T09:25:11;14.37;;;6.07;;
6614;SDS011;3343;42.896;23.912;2022-11-13T09:27:38;15.27;;;6.93;;
6614;SDS011;3343;42.896;23.912;2022-11-13T09:30:05;14.03;;;7.37;;
6614;SDS011;3343;42.896;23.912;2022-11-13T09:32:33;12.37;;;6.33;;
6614;SDS011;3343;42.896;23.912;2022-11-13T09:35:00;12.53;;;5.93;;
6614;SDS011;3343;42.896;23.912;2022-11-13T09:37:28;11.10;;;5.53;;
6614;SDS011;3343;42.896;23.912;2022-11-13T09:39:56;14.93;;;6.57;;
6614;SDS011;3343;42.896;23.912;2022-11-13T09:42:24;12.57;;;7.00;;
6614;SDS011;3343;42.896;23.912;2022-11-13T09:44:53;14.40;;;6.43;;
6614;SDS011;3343;42.896;23.912;2022-11-13T09:47:23;14.43;;;6.67;;
6614;SDS011;3343;42.896;23.912;2022-11-13T09:49:54;11.20;;;6.63;;
6614;SDS011;3343;42.896;23.912;2022-11-13T09:52:26;15.20;;;6.33;;
6614;SDS011;3343;42.896;23.912;2022-11-13T09:54:59;12.70;;;6.73;;
6614;SDS011;3343;42.896;23.912;2022-11-13T09:57:31;16.00;;;7.30;;
6614;SDS011;3343;42.896;23.912;2022-11-13T10:00:09;13.03;;;6.97;;
6614;SDS011;3343;42.896;23.912;2022-11-13T10:02:44;11.03;;;7.23;;
6614;SDS011;3343;42.896;23.912;2022-11-13T10:05:20;14.63;;;8.07;;
6614;SDS011;3343;42.896;23.912;2022-11-13T10:07:54;13.17;;;7.30;;
6614;SDS011;3343;42.896;23.912;2022-11-13T10:10:32;17.53;;;8.13;;
6614;SDS011;3343;42.896;23.912;2022-11-13T10:13:10;14.93;;;8.60;;
6614;SDS011;3343;42.896;23.912;2022-11-13T10:15:40;15.40;;;8.20;;
6614;SDS011;3343;42.896;23.912;2022-11-13T10:18:11;16.80;;;8.30;;
6614;SDS011;3343;42.896;23.912;2022-11-13T10:20:43;14.37;;;7.83;;
6614;SDS011;3343;42.896;23.912;2022-11-13T10:23:16;13.80;;;8.83;;
6614;SDS011;3343;42.896;23.912;2022-11-13T10:25:46;17.03;;;8.63;;
6614;SDS011;3343;42.896;23.912;2022-11-13T10:28:16;12.23;;;8.03;;
6614;SDS011;3343;42.896;23.912;2022-11-13T10:30:44;17.83;;;8.87;;
6614;SDS011;3343;42.896;23.912;2022-11-13T10:33:13;11.93;;;7.13;;
6614;SDS011;3343;42.896;23.912;2022-11-13T10:35:45;12.57;;;8.40;;
6614;SDS011;3343;42.896;23.912;2022-11-13T10:38:19;20.43;;;8.47;;
6614;SDS011;3343;42.896;23.912;2022-11-13T10:40:49;13.10;;;7.57;;
6614;SDS011;3343;42.896;23.912;2022-11-13T10:43:18;13.83;;;8.10;;
6614;SDS011;3343;42.896;23.912;2022-11-13T10:45:53;11.40;;;7.27;;
6614;SDS011;3343;42.896;23.912;2022-11-13T10:48:22;16.03;;;8.83;;
6614;SDS011;3343;42.896;23.912;2022-11-13T10:50:52;17.53;;;8.80;;
6614;SDS011;3343;42.896;23.912;2022-11-13T10:53:22;13.87;;;7.77;;
6614;SDS011;3343;42.896;23.912;2022-11-13T10:55:51;13.43;;;8.60;;
6614;SDS011;3343;42.896;23.912;2022-11-13T10:58:21;13.47;;;7.73;;
6614;SDS011;3343;42.896;23.912;2022-11-13T11:00:49;13.27;;;7.17;;
6614;SDS011;3343;42.896;23.912;2022-11-13T11:03:17;12.60;;;7.57;;
6614;SDS011;3343;42.896;23.912;2022-11-13T11:05:55;12.77;;;7.43;;
6614;SDS011;3343;42.896;23.912;2022-11-13T11:08:27;12.90;;;7.50;;
6614;SDS011;3343;42.896;23.912;2022-11-13T11:10:57;17.23;;;8.43;;
6614;SDS011;3343;42.896;23.912;2022-11-13T11:13:42;13.23;;;7.67;;
6614;SDS011;3343;42.896;23.912;2022-11-13T11:16:11;13.50;;;7.30;;
6614;SDS011;3343;42.896;23.912;2022-11-13T11:18:45;15.43;;;8.40;;
6614;SDS011;3343;42.896;23.912;2022-11-13T11:21:18;11.63;;;6.97;;
6614;SDS011;3343;42.896;23.912;2022-11-13T11:23:51;10.57;;;6.53;;
6614;SDS011;3343;42.896;23.912;2022-11-13T11:26:25;12.13;;;6.93;;
6614;SDS011;3343;42.896;23.912;2022-11-13T11:29:02;13.23;;;6.40;;
6614;SDS011;3343;42.896;23.912;2022-11-13T11:31:42;9.30;;;5.47;;
6614;SDS011;3343;42.896;23.912;2022-11-13T11:34:13;13.00;;;5.53;;
6614;SDS011;3343;42.896;23.912;2022-11-13T11:36:46;10.27;;;5.73;;
6614;SDS011;3343;42.896;23.912;2022-11-13T11:39:26;7.93;;;5.57;;
6614;SDS011;3343;42.896;23.912;2022-11-13T11:41:57;12.43;;;6.20;;
6614;SDS011;3343;42.896;23.912;2022-11-13T11:44:34;8.17;;;5.77;;
6614;SDS011;3343;42.896;23.912;2022-11-13T11:47:10;10.73;;;6.60;;
6614;SDS011;3343;42.896;23.912;2022-11-13T11:49:41;8.70;;;5.60;;
6614;SDS011;3343;42.896;23.912;2022-11-13T11:52:13;11.27;;;6.17;;
6614;SDS011;3343;42.896;23.912;2022-11-13T11:55:04;9.50;;;6.00;;
6614;SDS011;3343;42.896;23.912;2022-11-13T11:57:52;9.73;;;6.17;;
6614;SDS011;3343;42.896;23.912;2022-11-13T12:00:25;12.47;;;7.03;;
6614;SDS011;3343;42.896;23.912;2022-11-13T12:06:15;10.97;;;6.50;;
6614;SDS011;3343;42.896;23.912;2022-11-13T12:08:50;11.90;;;6.87;;
6614;SDS011;3343;42.896;23.912;2022-11-13T12:11:26;12.93;;;7.47;;
6614;SDS011;3343;42.896;23.912;2022-11-13T12:13:57;11.07;;;6.33;;
6614;SDS011;3343;42.896;23.912;2022-11-13T12:16:34;12.50;;;7.57;;
6614;SDS011;3343;42.896;23.912;2022-11-13T12:19:09;12.37;;;7.13;;
6614;SDS011;3343;42.896;23.912;2022-11-13T12:21:48;14.23;;;7.27;;
6614;SDS011;3343;42.896;23.912;2022-11-13T12:24:32;11.67;;;7.37;;
6614;SDS011;3343;42.896;23.912;2022-11-13T12:27:14;13.83;;;7.37;;
6614;SDS011;3343;42.896;23.912;2022-11-13T12:29:53;11.67;;;7.50;;
6614;SDS011;3343;42.896;23.912;2022-11-13T12:32:32;13.37;;;7.97;;
6614;SDS011;3343;42.896;23.912;2022-11-13T12:35:17;16.60;;;8.13;;
6614;SDS011;3343;42.896;23.912;2022-11-13T12:37:46;13.33;;;8.03;;
6614;SDS011;3343;42.896;23.912;2022-11-13T12:40:19;12.60;;;7.20;;
6614;SDS011;3343;42.896;23.912;2022-11-13T12:42:55;22.77;;;8.27;;
6614;SDS011;3343;42.896;23.912;2022-11-13T12:45:40;13.60;;;7.73;;
6614;SDS011;3343;42.896;23.912;2022-11-13T12:48:25;13.10;;;7.07;;
6614;SDS011;3343;42.896;23.912;2022-11-13T12:50:57;14.83;;;8.77;;
6614;SDS011;3343;42.896;23.912;2022-11-13T12:53:26;14.73;;;8.27;;
6614;SDS011;3343;42.896;23.912;2022-11-13T12:55:56;11.23;;;7.30;;
6614;SDS011;3343;42.896;23.912;2022-11-13T12:58:27;15.07;;;7.63;;
6614;SDS011;3343;42.896;23.912;2022-11-13T13:00:57;13.37;;;7.70;;
6614;SDS011;3343;42.896;23.912;2022-11-13T13:03:37;10.57;;;7.17;;
6614;SDS011;3343;42.896;23.912;2022-11-13T13:06:18;13.03;;;7.23;;
6614;SDS011;3343;42.896;23.912;2022-11-13T13:09:04;10.23;;;6.63;;
6614;SDS011;3343;42.896;23.912;2022-11-13T13:11:45;11.13;;;7.10;;
6614;SDS011;3343;42.896;23.912;2022-11-13T13:14:25;13.73;;;6.57;;
6614;SDS011;3343;42.896;23.912;2022-11-13T13:17:08;10.63;;;6.30;;
6614;SDS011;3343;42.896;23.912;2022-11-13T13:19:44;11.87;;;6.87;;
6614;SDS011;3343;42.896;23.912;2022-11-13T13:22:22;9.33;;;6.27;;
6614;SDS011;3343;42.896;23.912;2022-11-13T13:24:57;9.87;;;5.77;;
6614;SDS011;3343;42.896;23.912;2022-11-13T13:27:25;7.07;;;4.90;;
6614;SDS011;3343;42.896;23.912;2022-11-13T13:29:55;11.23;;;5.50;;
6614;SDS011;3343;42.896;23.912;2022-11-13T13:32:25;12.73;;;6.17;;
6614;SDS011;3343;42.896;23.912;2022-11-13T13:35:00;9.33;;;5.37;;
6614;SDS011;3343;42.896;23.912;2022-11-13T13:37:35;6.87;;;4.33;;
6614;SDS011;3343;42.896;23.912;2022-11-13T13:40:14;6.23;;;4.37;;
6614;SDS011;3343;42.896;23.912;2022-11-13T13:42:52;7.80;;;5.13;;
6614;SDS011;3343;42.896;23.912;2022-11-13T13:45:39;7.90;;;4.47;;
6614;SDS011;3343;42.896;23.912;2022-11-13T13:48:14;5.90;;;4.37;;
6614;SDS011;3343;42.896;23.912;2022-11-13T13:50:45;8.13;;;4.37;;
6614;SDS011;3343;42.896;23.912;2022-11-13T13:53:14;8.20;;;5.37;;
6614;SDS011;3343;42.896;23.912;2022-11-13T13:55:44;7.03;;;5.03;;
6614;SDS011;3343;42.896;23.912;2022-11-13T13:58:14;7.40;;;4.60;;
6614;SDS011;3343;42.896;23.912;2022-11-13T14:00:54;8.40;;;4.50;;
6614;SDS011;3343;42.896;23.912;2022-11-13T14:03:22;5.83;;;4.20;;
6614;SDS011;3343;42.896;23.912;2022-11-13T14:05:50;7.20;;;4.53;;
6614;SDS011;3343;42.896;23.912;2022-11-13T14:08:18;10.57;;;4.77;;
6614;SDS011;3343;42.896;23.912;2022-11-13T14:10:47;10.33;;;5.40;;
6614;SDS011;3343;42.896;23.912;2022-11-13T14:13:20;5.60;;;3.97;;
6614;SDS011;3343;42.896;23.912;2022-11-13T14:15:59;7.50;;;5.20;;
6614;SDS011;3343;42.896;23.912;2022-11-13T14:18:27;7.33;;;4.47;;
6614;SDS011;3343;42.896;23.912;2022-11-13T14:20:55;8.23;;;5.00;;
6614;SDS011;3343;42.896;23.912;2022-11-13T14:23:23;7.70;;;5.37;;
6614;SDS011;3343;42.896;23.912;2022-11-13T14:25:54;6.83;;;4.67;;
6614;SDS011;3343;42.896;23.912;2022-11-13T14:28:23;7.70;;;4.50;;
6614;SDS011;3343;42.896;23.912;2022-11-13T14:30:53;8.00;;;4.53;;
6614;SDS011;3343;42.896;23.912;2022-11-13T14:33:25;5.80;;;4.10;;
6614;SDS011;3343;42.896;23.912;2022-11-13T14:35:57;7.73;;;4.63;;
6614;SDS011;3343;42.896;23.912;2022-11-13T14:38:26;7.47;;;5.07;;
6614;SDS011;3343;42.896;23.912;2022-11-13T14:40:56;7.77;;;4.73;;
6614;SDS011;3343;42.896;23.912;2022-11-13T14:43:24;8.03;;;4.60;;
6614;SDS011;3343;42.896;23.912;2022-11-13T14:45:54;9.00;;;5.07;;
6614;SDS011;3343;42.896;23.912;2022-11-13T14:48:24;6.93;;;4.63;;
6614;SDS011;3343;42.896;23.912;2022-11-13T14:50:54;7.30;;;4.57;;
6614;SDS011;3343;42.896;23.912;2022-11-13T14:53:25;6.57;;;4.13;;
6614;SDS011;3343;42.896;23.912;2022-11-13T14:55:55;11.53;;;5.43;;
6614;SDS011;3343;42.896;23.912;2022-11-13T14:58:27;7.10;;;4.33;;
6614;SDS011;3343;42.896;23.912;2022-11-13T15:00:56;7.53;;;4.53;;
6614;SDS011;3343;42.896;23.912;2022-11-13T15:03:25;8.27;;;5.30;;
6614;SDS011;3343;42.896;23.912;2022-11-13T15:05:52;5.67;;;3.80;;
6614;SDS011;3343;42.896;23.912;2022-11-13T15:08:19;7.00;;;4.70;;
6614;SDS011;3343;42.896;23.912;2022-11-13T15:10:46;8.17;;;5.10;;